Flight Track Log - Related Links

Times and Time Zones

All times are in EST time to prevent confusion due to time zone crossing. See the N789EX flight status page for this flight to view local times or setup timezone preferences in your user account.

Time Position Orientation Groundspeed Altitude Reporting Facility
EST Latitude Longitude Course Direction KTS MPH feet Rate Location/Type
Thu 07:01:31 PM 47.5144 -122.2897 191° South 158 182 1,600  Level Seattle Center
Thu 07:06:56 PM 47.2660 -122.3633 261° West 317 365 15,500 2,640 Climbing FlightAware ADS-B
Thu 07:07:21 PM 47.2594 -122.4250 261° West 323 372 17,000 3,429 Climbing FlightAware ADS-B
Thu 07:07:38 PM 47.2559 -122.4562 261° West 329 379 17,900 3,200 Climbing FlightAware ADS-B
Thu 07:07:51 PM 47.2521 -122.4910 261° West 334 384 18,600 3,000 Climbing FlightAware ADS-B
Thu 07:08:10 PM 47.2474 -122.5345 261° West 342 394 19,500 2,909 Climbing FlightAware ADS-B
Thu 07:08:24 PM 47.2439 -122.5670 261° West 345 397 20,200 3,000 Climbing FlightAware ADS-B
Thu 07:08:40 PM 47.2399 -122.6052 261° West 351 404 21,000 2,903 Climbing FlightAware ADS-B
Thu 07:08:55 PM 47.2359 -122.6410 261° West 356 410 21,700 2,600 Climbing FlightAware ADS-B
Thu 07:09:10 PM 47.2320 -122.6753 261° West 360 414 22,300 2,516 Climbing FlightAware ADS-B
Thu 07:09:26 PM 47.2276 -122.7140 261° West 364 419 23,000 2,800 Climbing FlightAware ADS-B
Thu 07:09:40 PM 47.2250 -122.7370 260° West 365 420 23,700 2,800 Climbing FlightAware ADS-B
Thu 07:09:56 PM 47.2191 -122.7890 261° West 368 423 24,400 2,800 Climbing FlightAware ADS-B
Thu 07:10:10 PM 47.2156 -122.8204 261° West 367 422 25,100 2,903 Climbing FlightAware ADS-B
Thu 07:10:27 PM 47.2109 -122.8630 261° West 367 422 25,900 2,800 Climbing FlightAware ADS-B
Thu 07:10:40 PM 47.2072 -122.8962 261° West 370 426 26,500 2,516 Climbing FlightAware ADS-B
Thu 07:10:58 PM 47.2024 -122.9400 261° West 372 428 27,200 2,462 Climbing FlightAware ADS-B
Thu 07:11:19 PM 47.1962 -122.9945 261° West 374 430 28,100 2,647 Climbing FlightAware ADS-B
Thu 07:11:32 PM 47.1925 -123.0260 260° West 374 430 28,700 2,455 Climbing FlightAware ADS-B
Thu 07:11:41 PM 47.1895 -123.0480 256° West 378 435 29,000 1,765 Climbing FlightAware ADS-B
Thu 07:11:49 PM 47.1847 -123.0680 247° West 386 444 29,200 1,714 Climbing FlightAware ADS-B
Thu 07:11:55 PM 47.1799 -123.0820 241° Southwest 391 450 29,400 2,143 Climbing FlightAware ADS-B
Thu 07:12:03 PM 47.1725 -123.0990 235° Southwest 397 457 29,700 1,846 Climbing FlightAware ADS-B
Thu 07:12:08 PM 47.1658 -123.1100 229° Southwest 403 464 29,800 1,714 Climbing FlightAware ADS-B
Thu 07:12:10 PM 47.1633 -123.1144 227° Southwest 405 466 29,900 2,000 Climbing FlightAware ADS-B
Thu 07:12:14 PM 47.1583 -123.1210 222° Southwest 410 472 30,000 1,333 Climbing FlightAware ADS-B
Thu 07:12:19 PM 47.1506 -123.1300 217° Southwest 415 478 30,100 1,636 Climbing FlightAware ADS-B
Thu 07:12:25 PM 47.1398 -123.1410 211° Southwest 422 486 30,300 1,500 Climbing FlightAware ADS-B
Thu 07:12:31 PM 47.1296 -123.1480 204° Southwest 430 495 30,400 1,286 Climbing FlightAware ADS-B
Thu 07:12:39 PM 47.1151 -123.1553 196° South 440 506 30,600 1,600 Climbing FlightAware ADS-B
Thu 07:12:46 PM 47.1005 -123.1610 194° South 444 511 30,800 1,800 Climbing FlightAware ADS-B
Thu 07:13:09 PM 47.0622 -123.1749 194° South 448 516 31,500 1,935 Climbing FlightAware ADS-B
Thu 07:13:17 PM 47.0397 -123.1830 194° South 447 514 31,800 1,800 Climbing FlightAware ADS-B
Thu 07:13:39 PM 46.9941 -123.1999 194° South 453 521 32,400 1,600 Climbing FlightAware ADS-B
Thu 07:13:47 PM 46.9787 -123.2060 194° South 454 522 32,600 1,548 Climbing FlightAware ADS-B
Thu 07:14:10 PM 46.9341 -123.2220 194° South 458 527 33,200 1,600 Climbing FlightAware ADS-B
Thu 07:14:17 PM 46.9168 -123.2280 194° South 458 527 33,400 2,000 Climbing FlightAware ADS-B
Thu 07:14:40 PM 46.8741 -123.2439 194° South 455 524 34,200 1,800 Climbing FlightAware ADS-B
Thu 07:14:47 PM 46.8553 -123.2510 194° South 458 527 34,300 600 Climbing FlightAware ADS-B
Thu 07:15:10 PM 46.8092 -123.2681 194° South 468 539 34,500 581 Climbing FlightAware ADS-B
Thu 07:15:18 PM 46.7920 -123.2750 194° South 470 541 34,600 750 Climbing FlightAware ADS-B
Thu 07:15:42 PM 46.7482 -123.2909 194° South 478 550 34,900 800 Climbing FlightAware ADS-B (CYVR)
Thu 07:15:48 PM 46.7272 -123.2990 194° South 480 552 35,000 1,333 Climbing FlightAware ADS-B
Thu 07:16:18 PM 46.6624 -123.3230 194° South 481 554 35,700 1,636 Climbing FlightAware ADS-B
Thu 07:16:43 PM 46.7482 -123.2909 194° South 477 549 36,500 1,600 Climbing FlightAware ADS-B (CYVR)
Thu 07:16:48 PM 46.5977 -123.3460 194° South 479 551 36,500 833 Level FlightAware ADS-B
Thu 07:17:19 PM 46.5318 -123.3700 194° South 483 556 37,000 1,279 Climbing FlightAware ADS-B
Thu 07:17:49 PM 46.4667 -123.3940 194° South 479 551 37,800 1,500 Climbing FlightAware ADS-B
Thu 07:17:59 PM 46.5616 -123.3593 194° South 482 555 38,000 1,400 Climbing FlightAware ADS-B
Thu 07:18:19 PM 46.4019 -123.4180 194° South 474 545 38,500 1,227 Climbing FlightAware ADS-B
Thu 07:18:43 PM 46.3921 -123.4213 194° South 475 547 38,900 1,059 Climbing FlightAware ADS-B (SBFL / FLN)
Thu 07:18:53 PM 46.3296 -123.4440 194° South 474 545 39,100 900 Climbing FlightAware ADS-B
Thu 07:19:23 PM 46.2658 -123.4670 194° South 474 545 39,500 677 Climbing FlightAware ADS-B
Thu 07:19:55 PM 46.1993 -123.4910 194° South 479 551 39,800 581 Climbing FlightAware ADS-B
Thu 07:20:25 PM 46.1335 -123.5150 194° South 481 554 40,100 600 Climbing FlightAware ADS-B
Thu 07:20:55 PM 46.0686 -123.5390 194° South 483 556 40,400 590 Climbing FlightAware ADS-B
Thu 07:21:26 PM 46.0026 -123.5620 194° South 486 559 40,700 590 Climbing FlightAware ADS-B
Thu 07:21:56 PM 45.9362 -123.5860 194° South 487 560 41,000 643 Climbing FlightAware ADS-B
Thu 07:22:22 PM 45.8798 -123.6059 194° South 488 562 41,300 581 Climbing FlightAware ADS-B (SBFL / FLN)
Thu 07:22:27 PM 45.8693 -123.6100 194° South 487 560 41,300 686 Level FlightAware ADS-B
Thu 07:22:57 PM 45.8024 -123.6340 194° South 488 562 41,700 649 Climbing FlightAware ADS-B
Thu 07:23:04 PM 45.7897 -123.6381 194° South 490 564 41,700 387 Level FlightAware ADS-B (SBFL / FLN)
Thu 07:23:28 PM 45.7351 -123.6580 194° South 493 567 41,900 444 Climbing FlightAware ADS-B
Thu 07:23:58 PM 45.6681 -123.6810 194° South 496 571 42,100 375 Climbing FlightAware ADS-B
Thu 07:24:32 PM 45.6039 -123.7041 194° South 497 572 42,300 316 Climbing FlightAware ADS-B (SBFL / FLN)
Thu 07:24:55 PM 45.5395 -123.7270 194° South 498 573 42,400 364 Climbing FlightAware ADS-B
Thu 07:25:05 PM 45.5243 -123.7320 194° South 498 573 42,500 581 Climbing FlightAware ADS-B (SBFL / FLN)
Thu 07:25:26 PM 45.4708 -123.7510 194° South 496 571 42,700 429 Climbing FlightAware ADS-B
Thu 07:25:47 PM 45.4263 -123.7664 194° South 496 571 42,800 387 Climbing FlightAware ADS-B (SBFL / FLN)
Thu 07:25:57 PM 45.4032 -123.7750 194° South 496 571 42,900 462 Climbing FlightAware ADS-B
Thu 07:26:26 PM 45.3494 -123.7934 194° South 496 571 43,100 267 Climbing FlightAware ADS-B (SBFL / FLN)
Thu 07:26:42 PM 45.3023 -123.8100 194° South 496 571 43,100  Level FlightAware ADS-B
Thu 07:27:06 PM 45.2862 -123.8156 194° South 499 574 43,100  Level FlightAware ADS-B (SBFL / FLN)
Thu 07:27:45 PM 45.1628 -123.8585 194° South 503 579 43,100  Level FlightAware ADS-B (SBFL / FLN)
Thu 07:28:12 PM 45.1001 -123.8800 194° South 502 578 43,100  Level FlightAware ADS-B
Thu 07:28:27 PM 45.0681 -123.8913 194° South 502 578 43,100  Level FlightAware ADS-B (SBFL / FLN)
Thu 07:28:43 PM 45.0312 -123.9040 194° South 501 577 43,100  Level FlightAware ADS-B
Thu 07:29:13 PM 44.9630 -123.9280 194° South 499 574 43,100  Level FlightAware ADS-B
Thu 07:30:07 PM 44.8432 -123.9687 193° South 498 573 43,100  Level FlightAware ADS-B (SBFL / FLN)
Thu 07:30:48 PM 44.7534 -123.9989 194° South 498 573 43,100  Level FlightAware ADS-B (SBFL / FLN)
Thu 07:31:20 PM 44.6804 -124.0230 193° South 498 573 43,100  Level FlightAware ADS-B
Thu 07:31:50 PM 44.6126 -124.0500 203° Southwest 491 565 43,100  Level FlightAware ADS-B
Thu 07:31:59 PM 44.5950 -124.0640 213° Southwest 484 557 43,100  Level FlightAware ADS-B
Thu 07:32:07 PM 44.5817 -124.0800 223° Southwest 478 550 43,100  Level FlightAware ADS-B
Thu 07:32:08 PM 44.5876 -124.0723 222° Southwest 478 550 43,100  Level FlightAware ADS-B (SBFL / FLN)
Thu 07:32:11 PM 44.5763 -124.0880 228° Southwest 474 545 43,100  Level FlightAware ADS-B
Thu 07:32:17 PM 44.5686 -124.1020 235° Southwest 471 542 43,100 -462 Level FlightAware ADS-B
Thu 07:32:24 PM 44.5605 -124.1230 244° Southwest 467 537 43,000 -545 Descending FlightAware ADS-B
Thu 07:32:28 PM 44.5575 -124.1340 250° West 465 535 43,000  Level FlightAware ADS-B
Thu 07:32:36 PM 44.5536 -124.1570 260° West 462 532 43,000  Level FlightAware ADS-B
Thu 07:32:41 PM 44.5528 -124.1720 267° West 460 529 43,000  Level FlightAware ADS-B
Thu 07:32:47 PM 44.5528 -124.1772 271° West 458 527 43,000  Level FlightAware ADS-B (SBFL / FLN)
Thu 07:32:49 PM 44.5538 -124.1940 278° West 457 526 43,000  Level FlightAware ADS-B
Thu 07:32:52 PM 44.5550 -124.2030 281° West 457 526 43,000 -667 Level FlightAware ADS-B
Thu 07:32:58 PM 44.5588 -124.2210 288° West 457 526 42,900 -1,091 Descending FlightAware ADS-B
Thu 07:33:03 PM 44.5631 -124.2340 296° West 458 527 42,800 -1,333 Descending FlightAware ADS-B
Thu 07:33:07 PM 44.5665 -124.2423 301° West 459 528 42,700 -1,200 Descending FlightAware ADS-B (SBFL / FLN)
Thu 07:33:13 PM 44.5749 -124.2590 309° West 460 529 42,600 -1,895 Descending FlightAware ADS-B
Thu 07:33:26 PM 44.5763 -124.2609 323° Northwest 462 532 42,100 -3,000 Descending FlightAware ADS-B (SBFL / FLN)
Thu 07:33:31 PM 44.6049 -124.2920 331° Northwest 465 535 41,700 -3,120 Descending FlightAware ADS-B
Thu 07:33:51 PM 44.6437 -124.3170 339° North 470 541 40,800 -2,690 Descending FlightAware ADS-B
Thu 07:34:00 PM 44.6629 -124.3250 346° North 473 544 40,400 -2,400 Descending FlightAware ADS-B
Thu 07:34:06 PM 44.6758 -124.3280 351° North 474 545 40,200 -2,333 Descending FlightAware ADS-B
Thu 07:34:18 PM 44.7014 -124.3300 North 480 552 39,700 -3,000 Descending FlightAware ADS-B
Thu 07:34:20 PM 44.6952 -124.3303 North 481 554 39,500 -3,000 Descending FlightAware ADS-B (SBFL / FLN)
Thu 07:34:48 PM 44.7688 -124.3280 North 483 556 38,200 -2,681 Descending FlightAware ADS-B
Thu 07:35:07 PM 44.8040 -124.3254 North 480 552 37,400 -2,600 Descending FlightAware ADS-B (SBFL / FLN)
Thu 07:35:18 PM 44.8363 -124.3230 North 480 552 36,900 -2,714 Descending FlightAware ADS-B
Thu 07:35:49 PM 44.9032 -124.3170 North 478 550 35,500 -2,727 Descending FlightAware ADS-B
Thu 07:35:51 PM 44.9071 -124.3171 North 478 550 35,400 -3,200 Descending FlightAware ADS-B (SBFL / FLN)
Thu 07:36:19 PM 44.9703 -124.3120 North 476 548 33,900 -3,559 Descending FlightAware ADS-B
Thu 07:36:50 PM 45.0392 -124.3060 North 482 555 31,900 -3,000 Descending FlightAware ADS-B
Thu 07:37:21 PM 45.1052 -124.3000 North 466 536 30,800 -2,743 Descending FlightAware ADS-B
Thu 07:38:00 PM 45.1875 -124.2930 North 453 521 28,700 -3,039 Descending FlightAware ADS-B
Thu 07:38:38 PM 45.2662 -124.2870 North 436 502 26,900 -3,200 Descending FlightAware ADS-B
Thu 07:39:00 PM 45.2935 -124.2849 North 415 478 25,500 -4,000 Descending FlightAware ADS-B (SBFL / FLN)
Thu 07:39:11 PM 45.3300 -124.2820 North 413 475 24,700 -4,143 Descending FlightAware ADS-B
Thu 07:39:42 PM 45.3876 -124.2770 North 405 466 22,600 -2,667 Descending FlightAware ADS-B
Thu 07:41:08 PM 45.5321 -124.2656 North 319 367 19,500 -1,476 Descending FlightAware ADS-B (SBFL / FLN)
Thu 07:41:48 PM 45.5863 -124.2613 North 249 287 19,500  Level FlightAware ADS-B (SBFL / FLN)
Thu 07:42:28 PM 45.6268 -124.2583 North 193 222 19,500  Level FlightAware ADS-B (SBFL / FLN)
Thu 07:43:08 PM 45.6604 -124.2558 North 173 199 19,500  Level FlightAware ADS-B (SBFL / FLN)
Thu 07:46:11 PM 45.8076 -124.2440 North 252 290 19,500 -101 Level FlightAware ADS-B
Thu 07:48:04 PM 45.9715 -124.1410 1000° North 300 345 19,000 -254 Descending FlightAware ADS-B
Thu 07:48:09 PM 45.9781 -124.1329 40° Northeast 411 473 19,000  Level FlightAware ADS-B (SBFL / FLN)
Thu 07:48:10 PM 45.9810 -124.1290 40° Northeast 412 474 19,000  Level FlightAware ADS-B
Thu 07:48:41 PM 46.0258 -124.0750 40° Northeast 412 474 19,000  Level FlightAware ADS-B
Thu 07:49:12 PM 46.0705 -124.0200 40° Northeast 410 472 19,000  Level FlightAware ADS-B
Thu 07:49:43 PM 46.1147 -123.9670 40° Northeast 409 471 19,000  Level FlightAware ADS-B
Thu 07:49:50 PM 46.1228 -123.9569 40° Northeast 410 472 19,000  Level FlightAware ADS-B (SBFL / FLN)
Thu 07:50:13 PM 46.1585 -123.9130 40° Northeast 418 481 19,000  Level FlightAware ADS-B
Thu 07:50:23 PM 46.1644 -123.9063 40° Northeast 419 482 19,000  Level FlightAware ADS-B (SBFL / FLN)
Thu 07:50:43 PM 46.2039 -123.8580 40° Northeast 419 482 19,000  Level FlightAware ADS-B
Thu 07:51:10 PM 46.2169 -123.8421 40° Northeast 417 480 19,000  Level FlightAware ADS-B (SBFL / FLN)
Thu 07:51:14 PM 46.2484 -123.8040 40° Northeast 417 480 19,000  Level FlightAware ADS-B
Thu 07:51:44 PM 46.2929 -123.7490 40° Northeast 421 484 19,000  Level FlightAware ADS-B
Thu 07:51:50 PM 46.3012 -123.7387 40° Northeast 421 484 19,000  Level FlightAware ADS-B (SBFL / FLN)
Thu 07:52:14 PM 46.3374 -123.6950 40° Northeast 420 483 19,000  Level FlightAware ADS-B
Thu 07:52:44 PM 46.3818 -123.6400 40° Northeast 421 484 19,000  Level FlightAware ADS-B
Thu 07:53:14 PM 46.4266 -123.5850 41° Northeast 421 484 19,000  Level FlightAware ADS-B
Thu 07:53:44 PM 46.4712 -123.5290 41° Northeast 418 481 19,000  Level FlightAware ADS-B
Thu 07:54:14 PM 46.5151 -123.4750 41° Northeast 416 479 19,000  Level FlightAware ADS-B
Thu 07:54:29 PM 46.5230 -123.4651 41° Northeast 416 479 19,000  Level FlightAware ADS-B (SBFL / FLN)
Thu 07:54:45 PM 46.5595 -123.4200 41° Northeast 416 479 19,000  Level FlightAware ADS-B
Thu 07:55:15 PM 46.6038 -123.3650 41° Northeast 415 478 19,000  Level FlightAware ADS-B
Thu 07:55:45 PM 46.6474 -123.3100 41° Northeast 416 479 19,000  Level FlightAware ADS-B
Thu 07:56:15 PM 46.6915 -123.2550 41° Northeast 417 480 19,000  Level FlightAware ADS-B
Thu 07:56:46 PM 46.7363 -123.1990 41° Northeast 424 488 19,000  Level FlightAware ADS-B
Thu 07:57:16 PM 46.7816 -123.1420 41° Northeast 426 490 19,000  Level FlightAware ADS-B
Thu 07:57:47 PM 46.8266 -123.0850 41° Northeast 403 464 19,000  Level FlightAware ADS-B
Thu 07:58:21 PM 46.8724 -123.0270 41° Northeast 371 427 19,000  Level FlightAware ADS-B
Thu 07:58:52 PM 46.9108 -122.9790 41° Northeast 358 412 19,000  Level FlightAware ADS-B
Thu 07:59:22 PM 46.9487 -122.9310 41° Northeast 354 407 19,000 -400 Level FlightAware ADS-B
Thu 07:59:52 PM 46.9861 -122.8840 41° Northeast 355 409 18,600 -2,164 Descending FlightAware ADS-B
Thu 08:00:23 PM 47.0246 -122.8350 41° Northeast 374 430 16,800 -3,541 Descending FlightAware ADS-B
Thu 08:00:53 PM 47.0649 -122.7830 41° Northeast 388 447 15,000 -3,125 Descending FlightAware ADS-B
Thu 08:01:11 PM 47.0891 -122.7520 40° Northeast 385 443 14,300 -2,500 Descending FlightAware ADS-B
Thu 08:01:17 PM 47.0977 -122.7420 37° Northeast 382 440 14,000 -2,727 Descending FlightAware ADS-B
Thu 08:01:22 PM 47.1050 -122.7350 33° Northeast 380 437 13,800 -2,727 Descending FlightAware ADS-B
Thu 08:01:28 PM 47.1141 -122.7280 27° Northeast 376 433 13,500 -3,000 Descending FlightAware ADS-B
Thu 08:01:34 PM 47.1237 -122.7220 22° Northeast 374 430 13,200 -2,824 Descending FlightAware ADS-B
Thu 08:01:45 PM 47.1408 -122.7140 14° North 371 427 12,700 -2,488 Descending FlightAware ADS-B
Thu 08:02:15 PM 47.1907 -122.6980 12° North 356 410 11,500 -2,500 Descending FlightAware ADS-B
Thu 08:02:45 PM 47.2378 -122.6840 12° North 323 372 10,200 -1,875 Descending FlightAware ADS-B
Thu 08:03:03 PM 47.2623 -122.6760 12° North 301 346 10,000 -1,455 Descending FlightAware ADS-B
Thu 08:03:18 PM 47.2820 -122.6700 12° North 290 334 9,400 -2,323 Descending FlightAware ADS-B
Thu 08:03:34 PM 47.3020 -122.6630 13° North 284 327 8,800 -2,323 Descending FlightAware ADS-B
Thu 08:03:49 PM 47.3210 -122.6570 13° North 281 323 8,200 -2,600 Descending FlightAware ADS-B
Thu 08:04:04 PM 47.3402 -122.6510 13° North 280 322 7,500 -2,600 Descending FlightAware ADS-B
Thu 08:04:19 PM 47.3594 -122.6440 12° North 280 322 6,900 -2,200 Descending FlightAware ADS-B
Thu 08:04:34 PM 47.3792 -122.6380 12° North 282 325 6,400 -1,500 Descending FlightAware ADS-B
Thu 08:04:43 PM 47.3902 -122.6350 North 278 320 6,300 -750 Descending FlightAware ADS-B
Thu 08:04:58 PM 47.4092 -122.6310 North 273 314 6,100 -800 Descending FlightAware ADS-B
Thu 08:05:13 PM 47.4284 -122.6280 North 275 316 5,900 -1,400 Descending FlightAware ADS-B
Thu 08:05:28 PM 47.4474 -122.6240 North 274 315 5,400 -2,000 Descending FlightAware ADS-B
Thu 08:05:43 PM 47.4661 -122.6200 North 271 312 4,900 -2,129 Descending FlightAware ADS-B
Thu 08:05:59 PM 47.4850 -122.6160 North 271 312 4,300 -2,129 Descending FlightAware ADS-B
Thu 08:06:14 PM 47.5039 -122.6120 North 272 313 3,800 -2,129 Descending FlightAware ADS-B
Thu 08:06:30 PM 47.5235 -122.6080 North 268 308 3,200 -1,742 Descending FlightAware ADS-B
Thu 08:06:45 PM 47.5416 -122.6040 North 258 297 2,900 -1,200 Descending FlightAware ADS-B
Thu 08:06:50 PM 47.5477 -122.6030 10° North 256 295 2,800 -600 Descending FlightAware ADS-B
Thu 08:06:55 PM 47.5533 -122.6010 14° North 256 295 2,800 -667 Level FlightAware ADS-B
Thu 08:06:59 PM 47.5576 -122.5990 16° North 255 293 2,700 -667 Descending FlightAware ADS-B
Thu 08:07:04 PM 47.5634 -122.5960 19° North 254 292 2,700 -857 Level FlightAware ADS-B
Thu 08:07:20 PM 47.5812 -122.5860 21° North 254 292 2,400 -615 Descending FlightAware ADS-B
Thu 08:07:43 PM 47.6065 -122.5720 21° North 255 293 2,300 -300 Descending FlightAware ADS-B
Thu 08:08:00 PM 47.6227 -122.5550 35° Northeast 256 295 2,200 -188 Descending FlightAware ADS-B
Thu 08:08:15 PM 47.6340 -122.5340 35° Northeast 256 295 2,200  Level FlightAware ADS-B
Thu 08:08:19 PM 47.6363 -122.5290 54° Northeast 254 292 2,200  Level FlightAware ADS-B
Thu 08:08:34 PM 47.6470 -122.5070 54° Northeast 250 288 2,200 128 Level FlightAware ADS-B
Thu 08:09:06 PM 47.6671 -122.4660 55° Northeast 228 262 2,300 95 Climbing FlightAware ADS-B
Thu 08:09:37 PM 47.6685 -122.4230 56° Northeast 227 261 2,300 -146 Level FlightAware ADS-B
Thu 08:09:47 PM 47.6629 -122.4160 132° Southeast 183 211 2,200 -333 Descending FlightAware ADS-B
Thu 08:09:55 PM 47.6573 -122.4100 147° Southeast 161 185 2,200  Level FlightAware ADS-B
Thu 08:10:10 PM 47.6484 -122.4030 150° Southeast 149 171 2,200  Level FlightAware ADS-B
Thu 08:10:26 PM 47.6396 -122.3950 151° Southeast 149 171 2,200  Level FlightAware ADS-B
Thu 08:10:40 PM 47.6312 -122.3880 150° Southeast 144 166 2,200 -414 Level FlightAware ADS-B
Thu 08:10:55 PM 47.6225 -122.3810 150° Southeast 141 162 2,000 -727 Descending FlightAware ADS-B
Thu 08:11:13 PM 47.6124 -122.3720 150° Southeast 141 162 1,800 -706 Descending FlightAware ADS-B
Thu 08:11:29 PM 47.6032 -122.3640 150° Southeast 138 159 1,600 -837 Descending FlightAware ADS-B
Thu 08:11:56 PM 47.5881 -122.3520 150° Southeast 138 159 1,200 -835 Descending FlightAware ADS-B
Thu 08:12:48 PM 47.5603 -122.3286 150° Southeast 136 157 500 -706 Descending Seattle Center
Thu 08:13:04 PM 47.5514 -122.3217 152° Southeast 144 166 400 -393 Descending Seattle Center
Thu 08:13:49 PM 47.5286 -122.3008 148° Southeast 136 157 100 -400 Descending Seattle Center

Login

Don't have an account? Register now (free) for customized features, flight alerts, and more!